createdAt,value
2023-03-15T00:02:01.759Z,2.10
2023-03-15T00:04:30.123Z,2.10
2023-03-15T00:06:57.532Z,2.00
2023-03-15T00:09:25.348Z,2.00
2023-03-15T00:11:54.692Z,2.10
2023-03-15T00:14:22.298Z,2.00
2023-03-15T00:16:49.866Z,2.00
2023-03-15T00:19:17.369Z,1.90
2023-03-15T00:21:44.880Z,2.00
2023-03-15T00:24:12.491Z,1.90
2023-03-15T00:26:40.046Z,1.90
2023-03-15T00:29:09.324Z,1.90
2023-03-15T00:31:37.192Z,1.80
2023-03-15T00:34:04.756Z,1.80
2023-03-15T00:36:32.526Z,1.80
2023-03-15T00:39:00.008Z,1.70
2023-03-15T00:41:27.511Z,1.70
2023-03-15T00:43:55.012Z,1.70
2023-03-15T00:46:22.527Z,1.60
2023-03-15T00:48:51.597Z,1.60
2023-03-15T00:51:21.546Z,1.60
2023-03-15T00:53:50.932Z,1.60
2023-03-15T00:56:21.892Z,1.60
2023-03-15T00:58:49.989Z,1.70
2023-03-15T01:01:26.360Z,1.70
2023-03-15T01:03:54.075Z,1.70
2023-03-15T01:06:23.804Z,1.80
2023-03-15T01:08:51.957Z,1.80
2023-03-15T01:11:24.346Z,1.80
2023-03-15T01:13:53.225Z,1.80
2023-03-15T01:16:21.673Z,1.80
2023-03-15T01:18:51.579Z,1.80
2023-03-15T01:21:21.874Z,1.80
2023-03-15T01:23:50.533Z,1.80
2023-03-15T01:26:18.291Z,1.80
2023-03-15T01:28:47.314Z,1.80
2023-03-15T01:31:24.455Z,1.80
2023-03-15T01:33:52.435Z,1.70
2023-03-15T01:36:20.085Z,1.80
2023-03-15T01:38:49.560Z,1.80
2023-03-15T01:41:20.679Z,1.80
2023-03-15T01:43:48.352Z,1.70
2023-03-15T01:46:27.228Z,1.70
2023-03-15T01:49:22.941Z,1.60
2023-03-15T01:52:14.056Z,1.60
2023-03-15T01:55:01.330Z,1.60
2023-03-15T01:57:36.321Z,1.60
2023-03-15T02:00:15.912Z,1.60
2023-03-15T02:03:02.270Z,1.60
2023-03-15T02:05:36.381Z,1.50
2023-03-15T02:08:08.545Z,1.40
2023-03-15T02:10:44.059Z,1.40
2023-03-15T02:13:15.890Z,1.40
2023-03-15T02:15:46.868Z,1.30
2023-03-15T02:18:21.980Z,1.20
2023-03-15T02:21:21.043Z,1.10
2023-03-15T02:24:12.637Z,0.90
2023-03-15T02:26:48.259Z,0.90
2023-03-15T02:29:15.862Z,0.70
2023-03-15T02:31:45.172Z,0.70
2023-03-15T02:34:12.821Z,0.80
2023-03-15T02:36:41.931Z,0.80
2023-03-15T02:39:17.687Z,0.80
2023-03-15T02:41:50.996Z,0.80
2023-03-15T02:44:39.785Z,1.00
2023-03-15T02:47:19.641Z,1.10
2023-03-15T02:49:53.748Z,1.30
2023-03-15T02:52:22.849Z,1.30
2023-03-15T02:54:50.750Z,1.40
2023-03-15T02:57:19.636Z,1.40
2023-03-15T02:59:50.946Z,1.10
2023-03-15T03:02:19.572Z,0.90
2023-03-15T03:04:47.554Z,0.70
2023-03-15T03:07:15.206Z,0.60
2023-03-15T03:09:49.206Z,0.60
2023-03-15T03:12:18.289Z,0.60
2023-03-15T03:14:45.822Z,0.60
2023-03-15T03:17:17.846Z,0.60
2023-03-15T03:19:46.090Z,0.60
2023-03-15T03:22:15.097Z,0.60
2023-03-15T03:24:46.198Z,0.70
2023-03-15T03:27:16.402Z,0.70
2023-03-15T03:29:46.167Z,0.70
2023-03-15T03:32:16.725Z,0.70
2023-03-15T03:34:48.460Z,0.80
2023-03-15T03:37:19.487Z,0.80
2023-03-15T03:40:10.273Z,0.80
2023-03-15T03:42:38.218Z,0.90
2023-03-15T03:45:07.290Z,0.90
2023-03-15T03:47:40.327Z,0.90
2023-03-15T03:50:10.978Z,0.90
2023-03-15T03:52:38.815Z,0.90
2023-03-15T03:55:13.708Z,0.90
2023-03-15T03:57:43.211Z,0.80
2023-03-15T04:00:15.844Z,0.90
2023-03-15T04:02:43.985Z,0.80
2023-03-15T04:05:14.058Z,0.90
2023-03-15T04:07:42.230Z,0.90
2023-03-15T04:10:14.972Z,0.90
2023-03-15T04:12:45.884Z,0.90
2023-03-15T04:15:15.017Z,1.00
2023-03-15T04:17:42.717Z,1.00
2023-03-15T04:20:12.989Z,1.00
2023-03-15T04:22:49.658Z,1.00
2023-03-15T04:25:31.256Z,0.90
2023-03-15T04:28:27.771Z,1.00
2023-03-15T04:31:14.952Z,0.80
2023-03-15T04:34:15.083Z,0.60
2023-03-15T04:37:09.709Z,0.60
2023-03-15T04:39:55.763Z,0.50
2023-03-15T04:42:43.538Z,0.40
2023-03-15T04:45:33.625Z,0.40
2023-03-15T04:48:23.997Z,0.30
2023-03-15T04:51:17.456Z,0.30
2023-03-15T04:54:08.743Z,0.30
2023-03-15T04:56:56.442Z,0.20
2023-03-15T04:59:44.210Z,0.20
2023-03-15T05:02:14.218Z,0.10
2023-03-15T05:05:04.977Z,0.20
2023-03-15T05:07:55.935Z,0.10
2023-03-15T05:10:46.092Z,0.10
2023-03-15T05:13:51.852Z,0.10
2023-03-15T05:16:34.706Z,0.10
2023-03-15T05:19:21.817Z,0.20
2023-03-15T05:22:05.864Z,0.30
2023-03-15T05:24:56.708Z,0.30
2023-03-15T05:27:40.950Z,0.30
2023-03-15T05:30:21.642Z,0.40
2023-03-15T05:33:10.428Z,0.30
2023-03-15T05:35:40.846Z,0.30
2023-03-15T05:38:27.055Z,0.20
2023-03-15T05:41:06.635Z,0.20
2023-03-15T05:43:37.303Z,0.10
2023-03-15T05:46:19.655Z,0.20
2023-03-15T05:49:10.149Z,0.20
2023-03-15T05:52:13.250Z,0.20
2023-03-15T05:55:10.120Z,0.20
2023-03-15T05:58:09.777Z,0.30
2023-03-15T06:01:04.272Z,0.30
2023-03-15T06:04:00.921Z,0.50
2023-03-15T06:06:33.595Z,0.50
2023-03-15T06:09:02.339Z,0.50
2023-03-15T06:11:29.831Z,0.50
2023-03-15T06:13:57.457Z,0.50
2023-03-15T06:16:34.862Z,0.40
2023-03-15T06:19:04.427Z,0.40
2023-03-15T06:21:32.468Z,0.40
2023-03-15T06:24:01.128Z,0.40
2023-03-15T06:26:28.675Z,0.40
2023-03-15T06:29:01.283Z,0.40
2023-03-15T06:31:29.128Z,0.30
2023-03-15T06:34:09.220Z,0.20
2023-03-15T06:36:37.112Z,0.20
2023-03-15T06:39:05.738Z,0.20
2023-03-15T06:41:33.290Z,0.10
2023-03-15T06:44:08.990Z,0.10
2023-03-15T06:46:38.320Z,0.00
2023-03-15T06:49:06.687Z,0.00
2023-03-15T06:51:34.418Z,0.10
2023-03-15T06:54:02.011Z,0.10
2023-03-15T06:56:31.056Z,0.20
2023-03-15T06:58:58.503Z,0.10
2023-03-15T07:01:26.035Z,0.10
2023-03-15T07:03:53.516Z,0.10
2023-03-15T07:06:21.057Z,0.10
2023-03-15T07:08:49.590Z,0.00
2023-03-15T07:11:17.126Z,0.00
2023-03-15T07:13:44.598Z,0.00
2023-03-15T07:16:12.166Z,-0.10
2023-03-15T07:18:39.656Z,-0.10
2023-03-15T07:21:08.260Z,0.00
2023-03-15T07:23:35.934Z,0.10
2023-03-15T07:26:03.585Z,0.10
2023-03-15T07:28:31.197Z,-0.10
2023-03-15T07:31:01.863Z,0.00
2023-03-15T07:33:31.851Z,0.00
2023-03-15T07:35:59.918Z,0.10
2023-03-15T07:38:31.283Z,0.10
2023-03-15T07:41:01.786Z,0.20
2023-03-15T07:43:29.489Z,0.20
2023-03-15T07:46:09.656Z,0.30
2023-03-15T07:48:37.216Z,0.40
2023-03-15T07:51:05.192Z,0.40
2023-03-15T07:53:33.077Z,0.50
2023-03-15T07:56:01.356Z,0.50
2023-03-15T07:58:28.913Z,0.60
2023-03-15T08:00:57.136Z,0.60
2023-03-15T08:03:27.072Z,0.60
2023-03-15T08:05:57.485Z,0.70
2023-03-15T08:08:25.504Z,0.70
2023-03-15T08:10:53.327Z,0.80
2023-03-15T08:13:20.821Z,0.90
2023-03-15T08:15:48.487Z,0.90
2023-03-15T08:18:16.037Z,1.00
2023-03-15T08:20:43.567Z,1.10
2023-03-15T08:23:16.549Z,1.20
2023-03-15T08:25:44.933Z,1.30
2023-03-15T08:28:12.749Z,1.40
2023-03-15T08:30:41.064Z,1.50
2023-03-15T08:33:09.272Z,1.60
2023-03-15T08:35:36.822Z,1.60
2023-03-15T08:38:04.426Z,1.70
2023-03-15T08:40:32.338Z,1.80
2023-03-15T08:43:00.104Z,1.90
2023-03-15T08:45:27.862Z,2.00
2023-03-15T08:47:57.006Z,2.10
2023-03-15T08:50:25.850Z,2.20
2023-03-15T08:52:53.885Z,2.20
2023-03-15T08:55:21.414Z,2.30
2023-03-15T08:57:49.370Z,2.30
2023-03-15T09:00:28.082Z,2.40
2023-03-15T09:02:55.714Z,2.50
2023-03-15T09:05:24.705Z,2.60
2023-03-15T09:07:55.765Z,2.70
2023-03-15T09:10:25.903Z,2.80
2023-03-15T09:12:54.068Z,2.80
2023-03-15T09:15:22.024Z,2.90
2023-03-15T09:17:53.322Z,3.00
2023-03-15T09:20:24.104Z,3.00
2023-03-15T09:22:58.716Z,3.10
2023-03-15T09:25:26.618Z,3.10
2023-03-15T09:27:54.585Z,3.10
2023-03-15T09:30:24.171Z,3.20
2023-03-15T09:32:53.106Z,3.30
2023-03-15T09:35:21.497Z,3.40
2023-03-15T09:37:50.343Z,3.50
2023-03-15T09:40:29.547Z,3.60
2023-03-15T09:43:06.088Z,3.60
2023-03-15T09:45:52.289Z,3.60
2023-03-15T09:48:38.123Z,3.70
2023-03-15T09:51:13.067Z,3.70
2023-03-15T09:53:54.688Z,3.80
2023-03-15T09:56:49.063Z,3.80
2023-03-15T09:59:17.808Z,3.90
2023-03-15T10:01:47.716Z,3.80
2023-03-15T10:04:28.107Z,3.90
2023-03-15T10:07:01.763Z,3.90
2023-03-15T10:09:35.054Z,4.00
2023-03-15T10:12:13.863Z,4.00
2023-03-15T10:15:06.216Z,4.00
2023-03-15T10:17:58.398Z,4.10
2023-03-15T10:20:36.925Z,4.20
2023-03-15T10:23:15.733Z,4.20
2023-03-15T10:25:44.572Z,4.30
2023-03-15T10:28:24.979Z,4.30
2023-03-15T10:30:52.931Z,4.30
2023-03-15T10:33:29.579Z,4.40
2023-03-15T10:36:07.847Z,4.40
2023-03-15T10:38:39.149Z,4.50
2023-03-15T10:41:07.824Z,4.60
2023-03-15T10:43:37.490Z,4.70
2023-03-15T10:46:09.546Z,4.80
2023-03-15T10:48:39.706Z,4.80
2023-03-15T10:51:28.919Z,4.90
2023-03-15T10:54:06.775Z,5.00
2023-03-15T10:56:51.144Z,5.10
2023-03-15T10:59:26.607Z,5.30
2023-03-15T11:02:08.238Z,5.40
2023-03-15T11:04:59.072Z,5.30
2023-03-15T11:07:26.626Z,5.40
2023-03-15T11:09:59.466Z,5.40
2023-03-15T11:12:29.485Z,5.50
2023-03-15T11:15:15.506Z,5.50
2023-03-15T11:17:52.388Z,5.70
2023-03-15T11:20:35.811Z,5.80
2023-03-15T11:23:15.741Z,5.90
2023-03-15T11:25:44.382Z,6.00
2023-03-15T11:28:18.419Z,6.10
2023-03-15T11:30:48.609Z,6.00
2023-03-15T11:33:36.417Z,6.00
2023-03-15T11:36:27.067Z,6.00
2023-03-15T11:38:55.351Z,6.00
2023-03-15T11:41:28.953Z,6.00
2023-03-15T11:44:25.763Z,6.00
2023-03-15T11:47:05.380Z,5.90
2023-03-15T11:49:40.795Z,5.90
2023-03-15T11:52:08.494Z,5.90
2023-03-15T11:54:36.732Z,5.80
2023-03-15T11:57:29.139Z,5.80
2023-03-15T11:59:57.931Z,5.80
2023-03-15T12:02:26.404Z,5.90
2023-03-15T12:04:54.828Z,6.10
2023-03-15T12:07:24.415Z,6.00
2023-03-15T12:09:56.452Z,6.00
2023-03-15T12:12:26.925Z,6.00
2023-03-15T12:15:19.268Z,6.10
2023-03-15T12:17:56.198Z,6.10
2023-03-15T12:20:38.384Z,6.30
2023-03-15T12:23:18.058Z,6.60
2023-03-15T12:26:07.713Z,6.80
2023-03-15T12:28:36.856Z,6.70
2023-03-15T12:31:10.053Z,6.60
2023-03-15T12:33:46.379Z,6.70
2023-03-15T12:36:36.673Z,7.00
2023-03-15T12:39:37.000Z,7.00
2023-03-15T12:42:05.049Z,6.90
2023-03-15T12:44:32.488Z,6.80
2023-03-15T12:47:04.492Z,6.80
2023-03-15T12:49:41.671Z,6.70
2023-03-15T12:52:11.967Z,6.70
2023-03-15T12:54:50.371Z,6.60
2023-03-15T12:57:30.138Z,6.50
2023-03-15T13:00:06.336Z,6.60
2023-03-15T13:02:53.964Z,6.50
2023-03-15T13:05:36.356Z,6.50
2023-03-15T13:08:09.875Z,6.50
2023-03-15T13:10:46.647Z,6.50
2023-03-15T13:13:32.479Z,6.50
2023-03-15T13:16:18.091Z,6.50
2023-03-15T13:19:16.154Z,6.30
2023-03-15T13:22:08.400Z,6.40
2023-03-15T13:24:35.845Z,6.40
2023-03-15T13:27:29.016Z,6.40
2023-03-15T13:29:56.593Z,6.30
2023-03-15T13:32:24.509Z,6.30
2023-03-15T13:34:52.138Z,6.40
2023-03-15T13:37:30.984Z,6.30
2023-03-15T13:40:11.961Z,6.30
2023-03-15T13:42:41.188Z,6.30
2023-03-15T13:45:16.343Z,6.30
2023-03-15T13:47:46.168Z,6.30
2023-03-15T13:50:19.122Z,6.40
2023-03-15T13:52:48.293Z,6.50
2023-03-15T13:55:20.434Z,6.60
2023-03-15T13:57:54.484Z,6.70
2023-03-15T14:00:23.410Z,6.80
2023-03-15T14:02:54.131Z,6.60
2023-03-15T14:05:27.943Z,6.60
2023-03-15T14:07:58.460Z,6.60
2023-03-15T14:10:28.373Z,6.70
2023-03-15T14:12:57.419Z,6.70
2023-03-15T14:15:28.001Z,6.80
2023-03-15T14:18:02.834Z,6.80
2023-03-15T14:20:39.818Z,6.80
2023-03-15T14:23:12.118Z,6.60
2023-03-15T14:25:39.822Z,6.50
2023-03-15T14:28:12.204Z,6.40
2023-03-15T14:30:39.816Z,6.40
2023-03-15T14:33:08.875Z,6.40
2023-03-15T14:35:44.477Z,6.30
2023-03-15T14:38:22.715Z,6.30
2023-03-15T14:40:51.840Z,6.20
2023-03-15T14:43:19.719Z,6.20
2023-03-15T14:45:48.739Z,6.00
2023-03-15T14:48:27.643Z,6.10
2023-03-15T14:50:56.155Z,6.10
2023-03-15T14:53:26.206Z,6.10
2023-03-15T14:55:53.700Z,6.00
2023-03-15T14:58:22.951Z,6.10
2023-03-15T15:00:55.491Z,6.10
2023-03-15T15:03:39.958Z,6.20
2023-03-15T15:06:11.105Z,6.20
2023-03-15T15:08:41.833Z,6.10
2023-03-15T15:11:09.835Z,6.10
2023-03-15T15:13:38.565Z,6.10
2023-03-15T15:16:07.033Z,6.10
2023-03-15T15:18:37.192Z,6.10
2023-03-15T15:21:21.747Z,6.00
2023-03-15T15:23:58.332Z,6.10
2023-03-15T15:26:30.980Z,6.00
2023-03-15T15:28:59.638Z,6.00
2023-03-15T15:31:29.220Z,6.00
2023-03-15T15:33:57.449Z,5.90
2023-03-15T15:36:40.945Z,5.80
2023-03-15T15:39:27.711Z,5.80
2023-03-15T15:41:55.672Z,5.80
2023-03-15T15:44:25.714Z,5.80
2023-03-15T15:46:53.749Z,5.80
2023-03-15T15:49:21.254Z,5.80
2023-03-15T15:51:50.014Z,5.70
2023-03-15T15:54:26.086Z,5.70
2023-03-15T15:56:55.668Z,5.70
2023-03-15T15:59:25.700Z,5.70
2023-03-15T16:02:02.569Z,5.70
2023-03-15T16:04:30.786Z,5.60
2023-03-15T16:07:01.875Z,5.60
2023-03-15T16:09:32.266Z,5.50
2023-03-15T16:12:00.032Z,5.50
2023-03-15T16:14:27.652Z,5.50
2023-03-15T16:16:55.206Z,5.50
2023-03-15T16:19:22.688Z,5.50
2023-03-15T16:21:54.491Z,5.50
2023-03-15T16:24:25.909Z,5.50
2023-03-15T16:26:59.228Z,5.50
2023-03-15T16:29:35.513Z,5.50
2023-03-15T16:32:16.447Z,5.50
2023-03-15T16:34:52.329Z,5.50
2023-03-15T16:37:25.884Z,5.40
2023-03-15T16:39:56.093Z,5.40
2023-03-15T16:42:25.712Z,5.40
2023-03-15T16:44:53.710Z,5.40
2023-03-15T16:47:24.296Z,5.40
2023-03-15T16:49:51.851Z,5.30
2023-03-15T16:52:19.348Z,5.30
2023-03-15T16:54:48.857Z,5.30
2023-03-15T16:57:23.377Z,5.30
2023-03-15T16:59:51.298Z,5.30
2023-03-15T17:02:22.172Z,5.20
2023-03-15T17:04:49.792Z,5.20
2023-03-15T17:07:17.862Z,5.20
2023-03-15T17:09:47.690Z,5.20
2023-03-15T17:12:26.857Z,5.20
2023-03-15T17:14:56.868Z,5.20
2023-03-15T17:17:28.179Z,5.20
2023-03-15T17:19:55.677Z,5.10
2023-03-15T17:22:23.641Z,5.20
2023-03-15T17:24:51.314Z,5.20
2023-03-15T17:27:26.228Z,5.20
2023-03-15T17:29:53.726Z,5.10
2023-03-15T17:32:21.246Z,5.20
2023-03-15T17:34:48.846Z,5.10
2023-03-15T17:37:18.538Z,5.10
2023-03-15T17:39:47.769Z,5.10
2023-03-15T17:42:15.835Z,5.10
2023-03-15T17:44:44.316Z,5.10
2023-03-15T17:47:12.338Z,5.10
2023-03-15T17:49:40.064Z,5.00
2023-03-15T17:52:17.950Z,5.00
2023-03-15T17:54:46.552Z,5.00
2023-03-15T17:57:14.085Z,4.90
2023-03-15T17:59:41.606Z,4.90
2023-03-15T18:02:18.044Z,4.90
2023-03-15T18:04:46.283Z,4.80
2023-03-15T18:07:13.773Z,4.80
2023-03-15T18:09:41.373Z,4.80
2023-03-15T18:12:14.346Z,4.80
2023-03-15T18:14:42.842Z,4.70
2023-03-15T18:17:10.755Z,4.70
2023-03-15T18:19:38.316Z,4.70
2023-03-15T18:22:05.776Z,4.70
2023-03-15T18:24:34.510Z,4.60
2023-03-15T18:27:02.022Z,4.60
2023-03-15T18:29:29.640Z,4.60
2023-03-15T18:31:57.326Z,4.60
2023-03-15T18:34:26.146Z,4.60
2023-03-15T18:36:53.591Z,4.60
2023-03-15T18:39:23.957Z,4.60
2023-03-15T18:41:51.531Z,4.60
2023-03-15T18:44:19.130Z,4.50
2023-03-15T18:46:46.808Z,4.60
2023-03-15T18:49:14.267Z,4.50
2023-03-15T18:51:42.726Z,4.50
2023-03-15T18:54:10.466Z,4.50
2023-03-15T18:56:37.998Z,4.50
2023-03-15T18:59:05.498Z,4.50
2023-03-15T19:01:34.043Z,4.50
2023-03-15T19:04:01.509Z,4.50
2023-03-15T19:06:29.059Z,4.50
2023-03-15T19:08:57.474Z,4.60
2023-03-15T19:11:26.987Z,4.50
2023-03-15T19:13:54.591Z,4.50
2023-03-15T19:16:23.000Z,4.50
2023-03-15T19:18:52.089Z,4.50
2023-03-15T19:21:20.310Z,4.50
2023-03-15T19:23:48.216Z,4.60
2023-03-15T19:26:16.027Z,4.60
2023-03-15T19:28:43.745Z,4.60
2023-03-15T19:31:11.628Z,4.60
2023-03-15T19:33:39.257Z,4.60
2023-03-15T19:36:07.348Z,4.60
2023-03-15T19:38:34.898Z,4.60
2023-03-15T19:41:06.785Z,4.50
2023-03-15T19:43:34.906Z,4.60
2023-03-15T19:46:04.437Z,4.60
2023-03-15T19:48:32.064Z,4.60
2023-03-15T19:50:59.443Z,4.60
2023-03-15T19:53:27.420Z,4.60
2023-03-15T19:55:54.996Z,4.60
2023-03-15T19:58:22.586Z,4.60
2023-03-15T20:00:52.088Z,4.60
2023-03-15T20:03:19.688Z,4.60
2023-03-15T20:05:47.169Z,4.60
2023-03-15T20:08:14.803Z,4.60
2023-03-15T20:10:44.065Z,4.60
2023-03-15T20:13:11.654Z,4.60
2023-03-15T20:15:39.188Z,4.60
2023-03-15T20:18:08.242Z,4.60
2023-03-15T20:20:35.794Z,4.50
2023-03-15T20:23:03.760Z,4.50
2023-03-15T20:25:31.619Z,4.50
2023-03-15T20:27:59.160Z,4.40
2023-03-15T20:30:26.742Z,4.40
2023-03-15T20:32:54.807Z,4.30
2023-03-15T20:35:24.133Z,4.30
2023-03-15T20:37:53.560Z,4.20
2023-03-15T20:40:21.754Z,4.00
2023-03-15T20:42:49.596Z,3.90
2023-03-15T20:45:17.435Z,4.00
2023-03-15T20:47:45.082Z,4.00
2023-03-15T20:50:13.351Z,4.00
2023-03-15T20:52:42.691Z,4.00
2023-03-15T20:55:12.307Z,3.90
2023-03-15T20:57:42.553Z,3.90
2023-03-15T21:00:12.748Z,3.80
2023-03-15T21:02:40.465Z,3.80
2023-03-15T21:05:09.283Z,3.80
2023-03-15T21:07:36.903Z,3.70
2023-03-15T21:10:05.028Z,3.60
2023-03-15T21:12:32.916Z,3.50
2023-03-15T21:15:01.893Z,3.40
2023-03-15T21:17:29.498Z,3.40
2023-03-15T21:19:57.211Z,3.20
2023-03-15T21:22:24.876Z,3.30
2023-03-15T21:24:55.885Z,3.30
2023-03-15T21:27:26.541Z,3.20
2023-03-15T21:29:54.549Z,3.40
2023-03-15T21:32:22.263Z,3.30
2023-03-15T21:34:49.822Z,3.20
2023-03-15T21:37:17.380Z,3.40
2023-03-15T21:39:44.883Z,3.10
2023-03-15T21:42:12.297Z,3.40
2023-03-15T21:44:39.973Z,3.20
2023-03-15T21:47:07.476Z,3.20
2023-03-15T21:49:35.135Z,3.40
2023-03-15T21:52:02.966Z,3.20
2023-03-15T21:54:30.609Z,3.30
2023-03-15T21:56:58.214Z,3.40
2023-03-15T21:59:28.800Z,3.10
2023-03-15T22:02:01.665Z,3.40
2023-03-15T22:04:29.967Z,3.20
2023-03-15T22:06:57.409Z,3.20
2023-03-15T22:09:25.091Z,3.40
2023-03-15T22:11:52.588Z,3.50
2023-03-15T22:14:20.044Z,3.40
2023-03-15T22:16:47.574Z,3.20
2023-03-15T22:19:15.197Z,3.50
2023-03-15T22:21:42.652Z,3.40
2023-03-15T22:24:10.722Z,3.20
2023-03-15T22:26:38.311Z,3.30
2023-03-15T22:29:05.858Z,3.60
2023-03-15T22:31:33.499Z,3.40
2023-03-15T22:34:02.951Z,3.40
2023-03-15T22:36:34.644Z,3.30
2023-03-15T22:39:02.917Z,3.30
2023-03-15T22:41:30.371Z,3.60
2023-03-15T22:43:57.960Z,3.50
2023-03-15T22:46:26.096Z,3.60
2023-03-15T22:48:54.499Z,3.30
2023-03-15T22:51:22.076Z,3.30
2023-03-15T22:53:49.696Z,3.60
2023-03-15T22:56:17.283Z,3.60
2023-03-15T22:58:44.878Z,3.70
2023-03-15T23:01:12.531Z,3.40
2023-03-15T23:03:40.054Z,3.60
2023-03-15T23:06:07.831Z,3.50
2023-03-15T23:08:35.330Z,3.40
2023-03-15T23:11:03.916Z,3.60
2023-03-15T23:13:31.461Z,3.30
2023-03-15T23:15:59.129Z,3.60
2023-03-15T23:18:26.666Z,3.70
2023-03-15T23:21:04.484Z,3.40
2023-03-15T23:23:31.939Z,3.40
2023-03-15T23:25:59.573Z,3.70
2023-03-15T23:28:27.160Z,3.70
2023-03-15T23:30:54.809Z,3.40
2023-03-15T23:33:23.219Z,3.60
2023-03-15T23:35:50.796Z,3.70
2023-03-15T23:38:18.431Z,3.50
2023-03-15T23:40:53.788Z,3.80
2023-03-15T23:43:21.691Z,3.80
2023-03-15T23:45:49.407Z,3.60
2023-03-15T23:48:17.071Z,3.80
2023-03-15T23:50:44.605Z,4.00
2023-03-15T23:53:12.128Z,3.60
2023-03-15T23:55:39.584Z,3.70
2023-03-15T23:58:07.452Z,4.00
